createdAt,value
2022-12-03T00:00:27.723Z,3.65
2022-12-03T00:02:55.107Z,3.65
2022-12-03T00:05:22.927Z,3.66
2022-12-03T00:07:50.313Z,3.67
2022-12-03T00:10:17.836Z,3.68
2022-12-03T00:12:45.131Z,3.66
2022-12-03T00:15:12.386Z,3.68
2022-12-03T00:17:39.893Z,3.68
2022-12-03T00:20:09.206Z,3.67
2022-12-03T00:22:36.460Z,3.70
2022-12-03T00:25:03.838Z,3.69
2022-12-03T00:27:31.126Z,3.70
2022-12-03T00:29:58.454Z,3.71
2022-12-03T00:32:25.900Z,3.72
2022-12-03T00:34:53.471Z,3.72
2022-12-03T00:37:20.919Z,3.73
2022-12-03T00:39:48.803Z,3.74
2022-12-03T00:42:16.049Z,3.74
2022-12-03T00:44:43.338Z,3.75
2022-12-03T00:47:10.665Z,3.76
2022-12-03T00:49:38.658Z,3.76
2022-12-03T00:52:05.858Z,3.76
2022-12-03T00:54:35.227Z,3.74
2022-12-03T00:57:02.583Z,3.74
2022-12-03T00:59:29.843Z,3.75
2022-12-03T01:01:57.218Z,3.74
2022-12-03T01:04:24.596Z,3.74
2022-12-03T01:06:51.897Z,3.75
2022-12-03T01:09:19.224Z,3.74
2022-12-03T01:11:46.452Z,3.74
2022-12-03T01:14:19.451Z,3.75
2022-12-03T01:16:48.047Z,3.76
2022-12-03T01:19:16.261Z,3.78
2022-12-03T01:21:48.209Z,3.77
2022-12-03T01:24:16.010Z,3.76
2022-12-03T01:26:43.230Z,3.76
2022-12-03T01:29:10.684Z,3.77
2022-12-03T01:31:57.364Z,3.76
2022-12-03T01:34:24.659Z,3.75
2022-12-03T01:36:52.794Z,3.77
2022-12-03T01:39:20.199Z,3.74
2022-12-03T01:41:52.567Z,3.76
2022-12-03T01:44:24.115Z,3.76
2022-12-03T01:46:54.616Z,3.75
2022-12-03T01:49:26.419Z,3.75
2022-12-03T01:51:55.169Z,3.74
2022-12-03T01:54:27.980Z,3.74
2022-12-03T01:56:55.940Z,3.74
2022-12-03T01:59:35.914Z,3.73
2022-12-03T02:02:19.807Z,3.71
2022-12-03T02:04:49.666Z,3.70
2022-12-03T02:07:24.106Z,3.70
2022-12-03T02:09:53.881Z,3.70
2022-12-03T02:12:30.307Z,3.68
2022-12-03T02:14:58.114Z,3.69
2022-12-03T02:17:26.402Z,3.69
2022-12-03T02:19:55.298Z,3.66
2022-12-03T02:22:28.637Z,3.66
2022-12-03T02:25:16.035Z,3.65
2022-12-03T02:27:43.687Z,3.64
2022-12-03T02:30:13.598Z,3.63
2022-12-03T02:32:40.970Z,3.63
2022-12-03T02:35:23.662Z,3.62
2022-12-03T02:37:58.813Z,3.63
2022-12-03T02:40:31.071Z,3.63
2022-12-03T02:43:01.218Z,3.59
2022-12-03T02:45:40.662Z,3.58
2022-12-03T02:48:13.952Z,3.57
2022-12-03T02:50:46.239Z,3.58
2022-12-03T02:53:17.895Z,3.56
2022-12-03T02:55:45.587Z,3.53
2022-12-03T02:58:16.454Z,3.53
2022-12-03T03:00:45.239Z,3.52
2022-12-03T03:03:12.892Z,3.51
2022-12-03T03:05:41.608Z,3.51
2022-12-03T03:08:10.778Z,3.51
2022-12-03T03:10:40.765Z,3.50
2022-12-03T03:13:11.470Z,3.49
2022-12-03T03:15:40.610Z,3.49
2022-12-03T03:18:09.051Z,3.48
2022-12-03T03:20:37.618Z,3.46
2022-12-03T03:23:11.042Z,3.45
2022-12-03T03:25:40.677Z,3.46
2022-12-03T03:28:08.758Z,3.43
2022-12-03T03:30:38.931Z,3.42
2022-12-03T03:33:06.577Z,3.41
2022-12-03T03:35:34.012Z,3.38
2022-12-03T03:38:01.912Z,3.37
2022-12-03T03:40:29.683Z,3.36
2022-12-03T03:42:57.828Z,3.35
2022-12-03T03:45:29.141Z,3.32
2022-12-03T03:47:59.633Z,3.29
2022-12-03T03:50:29.420Z,3.25
2022-12-03T03:53:00.874Z,3.25
2022-12-03T03:55:29.077Z,3.20
2022-12-03T03:57:56.679Z,3.17
2022-12-03T04:00:25.128Z,3.15
2022-12-03T04:02:53.759Z,3.11
2022-12-03T04:05:23.847Z,3.08
2022-12-03T04:07:51.448Z,3.05
2022-12-03T04:10:39.084Z,3.05
2022-12-03T04:13:06.900Z,3.03
2022-12-03T04:15:35.081Z,3.01
2022-12-03T04:18:20.907Z,3.00
2022-12-03T04:20:49.704Z,2.98
2022-12-03T04:23:16.906Z,2.97
2022-12-03T04:26:03.020Z,2.97
2022-12-03T04:28:48.878Z,2.96
2022-12-03T04:31:34.851Z,2.95
2022-12-03T04:34:20.470Z,2.94
2022-12-03T04:36:47.801Z,2.92
2022-12-03T04:39:15.247Z,2.91
2022-12-03T04:41:42.539Z,2.91
2022-12-03T04:44:28.298Z,2.90
2022-12-03T04:46:55.573Z,2.91
2022-12-03T04:49:22.971Z,2.90
2022-12-03T04:51:50.268Z,2.91
2022-12-03T04:54:17.566Z,2.88
2022-12-03T04:56:45.108Z,2.88
2022-12-03T04:59:15.968Z,2.88
2022-12-03T05:01:44.595Z,2.88
2022-12-03T05:04:14.091Z,2.88
2022-12-03T05:06:42.066Z,2.87
2022-12-03T05:09:10.340Z,2.86
2022-12-03T05:11:37.914Z,2.84
2022-12-03T05:14:05.599Z,2.83
2022-12-03T05:16:33.021Z,2.82
2022-12-03T05:19:01.275Z,2.80
2022-12-03T05:21:28.686Z,2.80
2022-12-03T05:23:58.705Z,2.80
2022-12-03T05:26:26.013Z,2.80
2022-12-03T05:28:53.347Z,2.79
2022-12-03T05:31:20.793Z,2.79
2022-12-03T05:33:48.531Z,2.79
2022-12-03T05:36:17.021Z,2.79
2022-12-03T05:38:44.361Z,2.78
2022-12-03T05:41:30.304Z,2.80
2022-12-03T05:43:57.549Z,2.81
2022-12-03T05:46:24.953Z,2.81
2022-12-03T05:48:52.213Z,2.80
2022-12-03T05:51:19.464Z,2.79
2022-12-03T05:53:46.865Z,2.80
2022-12-03T05:56:14.108Z,2.79
2022-12-03T05:58:41.345Z,2.82
2022-12-03T06:01:08.681Z,2.79
2022-12-03T06:03:36.093Z,2.79
2022-12-03T06:06:03.615Z,2.76
2022-12-03T06:08:31.016Z,2.75
2022-12-03T06:10:58.421Z,2.74
2022-12-03T06:13:26.155Z,2.72
2022-12-03T06:15:53.514Z,2.71
2022-12-03T06:18:20.925Z,2.70
2022-12-03T06:20:48.377Z,2.70
2022-12-03T06:23:16.886Z,2.71
2022-12-03T06:25:44.404Z,2.71
2022-12-03T06:28:11.738Z,2.71
2022-12-03T06:30:41.130Z,2.70
2022-12-03T06:33:08.399Z,2.70
2022-12-03T06:35:35.733Z,2.67
2022-12-03T06:38:03.182Z,2.66
2022-12-03T06:40:30.504Z,2.66
2022-12-03T06:42:57.712Z,2.64
2022-12-03T06:45:25.432Z,2.65
2022-12-03T06:47:52.727Z,2.63
2022-12-03T06:50:19.996Z,2.62
2022-12-03T06:52:49.463Z,2.60
2022-12-03T06:55:17.506Z,2.61
2022-12-03T06:57:44.765Z,2.60
2022-12-03T07:00:12.471Z,2.58
2022-12-03T07:02:39.822Z,2.54
2022-12-03T07:05:07.558Z,2.54
2022-12-03T07:07:36.677Z,2.54
2022-12-03T07:10:04.801Z,2.50
2022-12-03T07:12:33.086Z,2.50
2022-12-03T07:15:00.814Z,2.47
2022-12-03T07:17:29.853Z,2.46
2022-12-03T07:19:57.062Z,2.45
2022-12-03T07:22:24.319Z,2.44
2022-12-03T07:24:51.809Z,2.43
2022-12-03T07:27:20.701Z,2.42
2022-12-03T07:29:47.934Z,2.41
2022-12-03T07:32:15.160Z,2.38
2022-12-03T07:34:42.410Z,2.38
2022-12-03T07:37:09.658Z,2.35
2022-12-03T07:39:36.901Z,2.32
2022-12-03T07:42:04.975Z,2.30
2022-12-03T07:44:35.751Z,2.26
2022-12-03T07:47:03.054Z,2.22
2022-12-03T07:49:31.546Z,2.21
2022-12-03T07:51:58.805Z,2.22
2022-12-03T07:54:26.391Z,2.20
2022-12-03T07:56:59.617Z,2.18
2022-12-03T07:59:30.514Z,2.19
2022-12-03T08:01:59.062Z,2.17
2022-12-03T08:04:26.399Z,2.17
2022-12-03T08:06:53.919Z,2.16
2022-12-03T08:09:21.270Z,2.16
2022-12-03T08:11:51.487Z,2.14
2022-12-03T08:14:20.584Z,2.13
2022-12-03T08:16:49.363Z,2.09
2022-12-03T08:19:18.333Z,2.07
2022-12-03T08:21:45.693Z,2.07
2022-12-03T08:24:18.886Z,2.05
2022-12-03T08:26:48.712Z,2.06
2022-12-03T08:29:18.704Z,2.04
2022-12-03T08:31:52.436Z,2.01
2022-12-03T08:34:22.664Z,1.99
2022-12-03T08:36:52.445Z,2.01
2022-12-03T08:39:29.231Z,2.03
2022-12-03T08:42:42.521Z,2.01
2022-12-03T08:45:31.286Z,1.99
2022-12-03T08:48:32.630Z,1.97
2022-12-03T08:51:04.211Z,1.92
2022-12-03T08:53:36.179Z,1.91
2022-12-03T08:56:23.106Z,1.92
2022-12-03T08:59:02.624Z,1.93
2022-12-03T09:01:39.700Z,1.93
2022-12-03T09:04:31.503Z,1.93
2022-12-03T09:06:59.096Z,1.94
2022-12-03T09:09:26.601Z,1.93
2022-12-03T09:11:57.441Z,1.94
2022-12-03T09:14:24.760Z,1.95
2022-12-03T09:16:57.690Z,1.97
2022-12-03T09:19:26.653Z,1.98
2022-12-03T09:21:54.807Z,1.97
2022-12-03T09:24:22.261Z,1.94
2022-12-03T09:26:50.223Z,1.91
2022-12-03T09:29:17.551Z,1.91
2022-12-03T09:31:47.665Z,1.92
2022-12-03T09:34:15.397Z,1.94
2022-12-03T09:36:42.619Z,1.93
2022-12-03T09:39:09.874Z,1.95
2022-12-03T09:41:39.302Z,2.00
2022-12-03T09:44:09.653Z,2.03
2022-12-03T09:46:40.257Z,2.02
2022-12-03T09:49:15.585Z,2.02
2022-12-03T09:51:44.473Z,2.05
2022-12-03T09:54:26.321Z,2.04
2022-12-03T09:56:56.627Z,2.04
2022-12-03T09:59:27.923Z,2.00
2022-12-03T10:01:55.929Z,1.98
2022-12-03T10:04:23.427Z,1.98
2022-12-03T10:06:51.655Z,1.95
2022-12-03T10:09:24.501Z,1.97
2022-12-03T10:11:52.270Z,1.97
2022-12-03T10:14:20.306Z,1.95
2022-12-03T10:16:49.099Z,1.94
2022-12-03T10:19:22.312Z,1.98
2022-12-03T10:21:49.638Z,2.01
2022-12-03T10:24:16.828Z,2.03
2022-12-03T10:26:49.022Z,2.05
2022-12-03T10:29:33.164Z,2.06
2022-12-03T10:32:06.259Z,2.04
2022-12-03T10:34:36.866Z,2.06
2022-12-03T10:37:22.495Z,2.06
2022-12-03T10:40:00.532Z,2.05
2022-12-03T10:42:35.255Z,2.06
2022-12-03T10:45:29.148Z,2.04
2022-12-03T10:48:06.777Z,2.09
2022-12-03T10:50:35.397Z,2.10
2022-12-03T10:53:03.096Z,2.11
2022-12-03T10:55:39.883Z,2.13
2022-12-03T10:58:17.980Z,2.12
2022-12-03T11:00:45.396Z,2.12
2022-12-03T11:03:26.739Z,2.12
2022-12-03T11:05:57.937Z,2.14
2022-12-03T11:08:28.959Z,2.15
2022-12-03T11:11:18.120Z,2.14
2022-12-03T11:13:59.959Z,2.17
2022-12-03T11:16:39.163Z,2.20
2022-12-03T11:19:17.495Z,2.21
2022-12-03T11:22:03.894Z,2.20
2022-12-03T11:24:34.445Z,2.23
2022-12-03T11:27:01.689Z,2.25
2022-12-03T11:29:53.635Z,2.26
2022-12-03T11:33:01.889Z,2.27
2022-12-03T11:35:36.893Z,2.29
2022-12-03T11:38:29.736Z,2.29
2022-12-03T11:41:31.943Z,2.31
2022-12-03T11:44:26.047Z,2.31
2022-12-03T11:46:54.392Z,2.27
2022-12-03T11:49:28.953Z,2.24
2022-12-03T11:51:58.136Z,2.24
2022-12-03T11:54:25.728Z,2.25
2022-12-03T11:56:54.366Z,2.26
2022-12-03T11:59:22.553Z,2.22
2022-12-03T12:01:51.279Z,2.15
2022-12-03T12:04:37.845Z,2.09
2022-12-03T12:07:05.380Z,2.04
2022-12-03T12:09:53.856Z,2.05
2022-12-03T12:12:53.257Z,2.04
2022-12-03T12:15:59.536Z,2.04
2022-12-03T12:18:54.701Z,2.06
2022-12-03T12:21:43.897Z,2.09
2022-12-03T12:24:51.560Z,2.08
2022-12-03T12:27:51.723Z,2.04
2022-12-03T12:30:21.865Z,2.07
2022-12-03T12:32:50.654Z,2.11
2022-12-03T12:35:24.167Z,2.12
2022-12-03T12:38:00.476Z,2.17
2022-12-03T12:40:32.264Z,2.16
2022-12-03T12:43:08.291Z,2.17
2022-12-03T12:45:41.617Z,2.16
2022-12-03T12:48:25.965Z,2.14
2022-12-03T12:51:01.852Z,2.12
2022-12-03T12:53:37.004Z,2.10
2022-12-03T12:56:15.197Z,2.02
2022-12-03T12:58:43.107Z,1.95
2022-12-03T13:01:36.905Z,1.92
2022-12-03T13:04:13.922Z,1.89
2022-12-03T13:06:41.610Z,1.89
2022-12-03T13:09:17.865Z,1.90
2022-12-03T13:11:58.229Z,1.93
2022-12-03T13:14:32.160Z,1.94
2022-12-03T13:17:09.863Z,1.91
2022-12-03T13:19:48.250Z,1.90
2022-12-03T13:22:21.981Z,1.91
2022-12-03T13:24:56.095Z,1.85
2022-12-03T13:27:29.625Z,1.85
2022-12-03T13:30:21.015Z,1.85
2022-12-03T13:32:49.168Z,1.85
2022-12-03T13:35:27.241Z,1.88
2022-12-03T13:37:54.508Z,1.91
2022-12-03T13:40:35.309Z,1.92
2022-12-03T13:43:21.084Z,1.90
2022-12-03T13:45:50.683Z,1.87
2022-12-03T13:48:35.626Z,1.87
2022-12-03T13:51:21.148Z,1.88
2022-12-03T13:53:49.070Z,1.89
2022-12-03T13:56:33.734Z,1.89
2022-12-03T13:59:01.753Z,1.87
2022-12-03T14:01:29.564Z,1.84
2022-12-03T14:03:57.094Z,1.82
2022-12-03T14:06:24.404Z,1.81
2022-12-03T14:08:51.673Z,1.79
2022-12-03T14:11:38.328Z,1.79
2022-12-03T14:14:05.747Z,1.76
2022-12-03T14:16:33.120Z,1.75
2022-12-03T14:19:00.848Z,1.74
2022-12-03T14:21:28.306Z,1.71
2022-12-03T14:23:55.620Z,1.69
2022-12-03T14:26:22.889Z,1.69
2022-12-03T14:28:50.223Z,1.67
2022-12-03T14:31:17.601Z,1.65
2022-12-03T14:33:44.947Z,1.58
2022-12-03T14:36:12.312Z,1.56
2022-12-03T14:38:39.578Z,1.56
2022-12-03T14:41:26.784Z,1.54
2022-12-03T14:43:54.284Z,1.49
2022-12-03T14:46:21.689Z,1.48
2022-12-03T14:48:50.364Z,1.45
2022-12-03T14:51:18.746Z,1.43
2022-12-03T14:53:46.034Z,1.41
2022-12-03T14:56:13.288Z,1.41
2022-12-03T14:58:40.644Z,1.36
2022-12-03T15:01:08.021Z,1.36
2022-12-03T15:03:36.445Z,1.36
2022-12-03T15:06:03.776Z,1.34
2022-12-03T15:08:31.395Z,1.33
2022-12-03T15:10:58.729Z,1.33
2022-12-03T15:13:26.612Z,1.32
2022-12-03T15:15:53.849Z,1.31
2022-12-03T15:18:21.144Z,1.31
2022-12-03T15:20:49.903Z,1.31
2022-12-03T15:23:17.970Z,1.34
2022-12-03T15:25:45.252Z,1.29
2022-12-03T15:28:12.612Z,1.26
2022-12-03T15:30:39.902Z,1.24
2022-12-03T15:33:09.313Z,1.24
2022-12-03T15:35:36.869Z,1.23
2022-12-03T15:38:04.137Z,1.24
2022-12-03T15:40:31.843Z,1.24
2022-12-03T15:42:59.159Z,1.25
2022-12-03T15:45:26.475Z,1.24
2022-12-03T15:47:53.849Z,1.26
2022-12-03T15:50:34.582Z,1.26
2022-12-03T15:53:06.135Z,1.28
2022-12-03T15:55:36.030Z,1.30
2022-12-03T15:58:03.588Z,1.31
2022-12-03T16:00:30.847Z,1.32
2022-12-03T16:02:58.126Z,1.32
2022-12-03T16:05:25.530Z,1.31
2022-12-03T16:07:52.877Z,1.33
2022-12-03T16:10:21.574Z,1.35
2022-12-03T16:12:50.525Z,1.34
2022-12-03T16:15:22.100Z,1.35
2022-12-03T16:17:52.563Z,1.34
2022-12-03T16:20:19.886Z,1.33
2022-12-03T16:22:47.616Z,1.32
2022-12-03T16:25:15.044Z,1.32
2022-12-03T16:27:42.426Z,1.32
2022-12-03T16:30:10.326Z,1.32
2022-12-03T16:32:37.757Z,1.33
2022-12-03T16:35:05.773Z,1.34
2022-12-03T16:37:33.259Z,1.37
2022-12-03T16:40:02.879Z,1.38
2022-12-03T16:42:30.720Z,1.38
2022-12-03T16:44:57.977Z,1.35
2022-12-03T16:47:30.636Z,1.34
2022-12-03T16:50:05.176Z,1.32
2022-12-03T16:52:32.606Z,1.29
2022-12-03T16:55:00.104Z,1.27
2022-12-03T16:57:33.104Z,1.26
2022-12-03T17:00:01.741Z,1.24
2022-12-03T17:02:29.053Z,1.22
2022-12-03T17:04:56.404Z,1.20
2022-12-03T17:07:23.747Z,1.19
2022-12-03T17:09:51.191Z,1.15
2022-12-03T17:12:18.583Z,1.14
2022-12-03T17:14:45.891Z,1.13
2022-12-03T17:17:13.158Z,1.11
2022-12-03T17:19:40.375Z,1.10
2022-12-03T17:22:07.680Z,1.08
2022-12-03T17:24:34.926Z,1.06
2022-12-03T17:27:02.305Z,1.05
2022-12-03T17:29:29.565Z,1.03
2022-12-03T17:31:56.884Z,1.02
2022-12-03T17:34:24.154Z,1.00
2022-12-03T17:36:51.626Z,0.96
2022-12-03T17:39:18.902Z,0.97
2022-12-03T17:41:50.189Z,0.95
2022-12-03T17:44:21.245Z,0.94
2022-12-03T17:46:50.193Z,0.93
2022-12-03T17:49:17.683Z,0.92
2022-12-03T17:51:44.893Z,0.91
2022-12-03T17:54:13.969Z,0.90
2022-12-03T17:56:43.596Z,0.89
2022-12-03T17:59:14.572Z,0.88
2022-12-03T18:01:42.458Z,0.88
2022-12-03T18:04:10.464Z,0.88
2022-12-03T18:06:38.160Z,0.89
2022-12-03T18:09:05.866Z,0.94
2022-12-03T18:11:35.159Z,0.94
2022-12-03T18:14:02.466Z,0.98
2022-12-03T18:16:29.939Z,1.03
2022-12-03T18:19:02.032Z,1.05
2022-12-03T18:21:33.975Z,1.06
2022-12-03T18:24:02.258Z,1.07
2022-12-03T18:26:29.743Z,1.08
2022-12-03T18:28:57.203Z,1.10
2022-12-03T18:31:24.583Z,1.09
2022-12-03T18:33:52.817Z,1.09
2022-12-03T18:36:26.144Z,1.09
2022-12-03T18:38:55.464Z,1.11
2022-12-03T18:41:24.415Z,1.07
2022-12-03T18:43:52.793Z,1.08
2022-12-03T18:49:09.460Z,1.06
2022-12-03T18:51:37.290Z,1.07
2022-12-03T18:54:04.768Z,1.09
2022-12-03T18:56:32.013Z,1.08
2022-12-03T18:58:59.253Z,1.09
2022-12-03T19:01:26.587Z,1.09
2022-12-03T19:03:55.359Z,1.09
2022-12-03T19:06:22.653Z,1.10
2022-12-03T19:08:54.044Z,1.09
2022-12-03T19:11:22.083Z,1.05
2022-12-03T19:13:49.483Z,1.05
2022-12-03T19:16:17.313Z,1.03
2022-12-03T19:18:45.283Z,1.01
2022-12-03T19:21:15.498Z,1.01
2022-12-03T19:24:04.325Z,0.96
2022-12-03T19:26:30.930Z,0.92
2022-12-03T19:28:59.800Z,0.88
2022-12-03T19:31:27.372Z,0.87
2022-12-03T19:33:54.682Z,0.87
2022-12-03T19:36:25.359Z,0.87
2022-12-03T19:38:56.830Z,0.85
2022-12-03T19:41:28.487Z,0.82
2022-12-03T19:43:57.070Z,0.81
2022-12-03T19:46:28.655Z,0.80
2022-12-03T19:48:56.264Z,0.80
2022-12-03T19:51:34.733Z,0.79
2022-12-03T19:54:08.039Z,0.80
2022-12-03T19:56:35.643Z,0.80
2022-12-03T19:59:03.560Z,0.78
2022-12-03T20:01:50.968Z,0.76
2022-12-03T20:04:18.392Z,0.78
2022-12-03T20:06:45.700Z,0.78
2022-12-03T20:09:17.284Z,0.81
2022-12-03T20:11:45.798Z,0.82
2022-12-03T20:14:15.474Z,0.83
2022-12-03T20:16:43.973Z,0.83
2022-12-03T20:19:13.564Z,0.82
2022-12-03T20:21:44.795Z,0.81
2022-12-03T20:24:17.615Z,0.83
2022-12-03T20:26:47.657Z,0.84
2022-12-03T20:29:15.179Z,0.85
2022-12-03T20:31:43.710Z,0.84
2022-12-03T20:34:11.364Z,0.81
2022-12-03T20:36:42.390Z,0.80
2022-12-03T20:39:10.335Z,0.77
2022-12-03T20:41:38.001Z,0.78
2022-12-03T20:44:07.731Z,0.77
2022-12-03T20:46:36.491Z,0.77
2022-12-03T20:49:04.828Z,0.79
2022-12-03T20:51:32.591Z,0.81
2022-12-03T20:54:01.173Z,0.81
2022-12-03T20:56:31.599Z,0.83
2022-12-03T20:59:10.355Z,0.83
2022-12-03T21:01:38.627Z,0.84
2022-12-03T21:04:07.281Z,0.81
2022-12-03T21:06:36.916Z,0.78
2022-12-03T21:09:08.371Z,0.76
2022-12-03T21:11:41.473Z,0.75
2022-12-03T21:14:11.237Z,0.76
2022-12-03T21:19:30.237Z,0.75
2022-12-03T21:21:57.534Z,0.70
2022-12-03T21:24:24.824Z,0.68
2022-12-03T21:26:52.136Z,0.67
2022-12-03T21:29:19.509Z,0.66
2022-12-03T21:31:46.956Z,0.66
2022-12-03T21:34:14.144Z,0.66
2022-12-03T21:36:41.715Z,0.66
2022-12-03T21:39:09.455Z,0.69
2022-12-03T21:41:36.819Z,0.71
2022-12-03T21:44:04.507Z,0.68
2022-12-03T21:47:10.098Z,0.68
2022-12-03T21:49:20.920Z,0.64
2022-12-03T21:51:48.677Z,0.64
2022-12-03T21:54:15.968Z,0.62
2022-12-03T21:56:43.442Z,0.62
2022-12-03T21:59:10.609Z,0.62
2022-12-03T22:01:40.574Z,0.64
2022-12-03T22:04:10.128Z,0.64
2022-12-03T22:06:37.367Z,0.67
2022-12-03T22:09:04.702Z,0.68
2022-12-03T22:11:31.994Z,0.66
2022-12-03T22:13:59.310Z,0.67
2022-12-03T22:16:26.638Z,0.64
2022-12-03T22:18:54.319Z,0.61
2022-12-03T22:21:21.874Z,0.59
2022-12-03T22:23:49.125Z,0.59
2022-12-03T22:26:18.557Z,0.59
2022-12-03T22:28:47.986Z,0.59
2022-12-03T22:31:16.877Z,0.61
2022-12-03T22:33:48.138Z,0.61
2022-12-03T22:36:21.063Z,0.59
2022-12-03T22:38:50.944Z,0.61
2022-12-03T22:41:20.178Z,0.58
2022-12-03T22:43:48.879Z,0.56
2022-12-03T22:46:17.434Z,0.56
2022-12-03T22:48:47.669Z,0.54
2022-12-03T22:51:20.652Z,0.54
2022-12-03T22:53:48.818Z,0.52
2022-12-03T22:56:17.323Z,0.54
2022-12-03T22:58:44.905Z,0.52
2022-12-03T23:01:38.637Z,0.52
2022-12-03T23:04:11.723Z,0.51
2022-12-03T23:06:40.321Z,0.49
2022-12-03T23:09:08.602Z,0.49
2022-12-03T23:11:37.117Z,0.50
2022-12-03T23:14:04.616Z,0.50
2022-12-03T23:16:33.278Z,0.49
2022-12-03T23:19:01.798Z,0.50
2022-12-03T23:21:31.833Z,0.51
2022-12-03T23:24:00.312Z,0.52
2022-12-03T23:26:28.620Z,0.52
2022-12-03T23:28:56.479Z,0.50
2022-12-03T23:31:26.770Z,0.49
2022-12-03T23:33:54.925Z,0.47
2022-12-03T23:36:23.466Z,0.48
2022-12-03T23:38:50.809Z,0.46
2022-12-03T23:41:20.732Z,0.43
2022-12-03T23:43:49.262Z,0.43
2022-12-03T23:46:20.064Z,0.44
2022-12-03T23:48:47.728Z,0.43
2022-12-03T23:51:17.880Z,0.43
2022-12-03T23:53:47.653Z,0.44
2022-12-03T23:56:21.950Z,0.43
2022-12-03T23:58:49.230Z,0.42
